createdAt,value
2022-07-29T00:00:00.711Z,6.60
2022-07-29T00:04:55.268Z,6.90
2022-07-29T00:07:22.589Z,7.13
2022-07-29T00:09:51.362Z,4.18
2022-07-29T00:12:25.419Z,5.60
2022-07-29T00:14:54.796Z,8.32
2022-07-29T00:17:22.256Z,5.78
2022-07-29T00:19:49.446Z,5.40
2022-07-29T00:22:17.653Z,6.18
2022-07-29T00:24:44.905Z,4.57
2022-07-29T00:27:12.075Z,5.50
2022-07-29T00:29:40.039Z,5.82
2022-07-29T00:32:07.648Z,5.75
2022-07-29T00:37:21.519Z,5.50
2022-07-29T00:39:48.660Z,4.80
2022-07-29T00:42:16.042Z,6.20
2022-07-29T00:44:43.710Z,10.38
2022-07-29T00:49:38.579Z,4.32
2022-07-29T00:52:06.837Z,6.68
2022-07-29T00:54:34.646Z,5.30
2022-07-29T00:59:34.551Z,5.15
2022-07-29T01:02:02.907Z,7.13
2022-07-29T01:06:58.333Z,5.07
2022-07-29T01:09:43.000Z,9.32
2022-07-29T01:12:25.106Z,5.68
2022-07-29T01:14:52.815Z,6.22
2022-07-29T01:19:53.005Z,6.50
2022-07-29T01:22:44.805Z,6.68
2022-07-29T01:25:30.758Z,9.00
2022-07-29T01:28:00.901Z,7.88
2022-07-29T01:30:28.889Z,5.00
2022-07-29T01:33:04.046Z,4.68
2022-07-29T01:35:35.570Z,4.57
2022-07-29T01:38:11.698Z,5.70
2022-07-29T01:40:45.243Z,7.53
2022-07-29T01:43:14.779Z,4.03
2022-07-29T01:45:43.302Z,4.20
2022-07-29T01:48:13.233Z,5.80
2022-07-29T01:50:50.623Z,5.20
2022-07-29T01:53:36.426Z,6.33
2022-07-29T01:56:05.692Z,6.70
2022-07-29T01:58:33.853Z,7.85
2022-07-29T02:01:01.577Z,6.57
2022-07-29T02:03:29.818Z,4.13
2022-07-29T02:05:58.305Z,4.47
2022-07-29T02:08:26.812Z,3.63
2022-07-29T02:10:54.669Z,4.90
2022-07-29T02:13:22.411Z,4.13
2022-07-29T02:15:50.559Z,3.83
2022-07-29T02:18:19.408Z,5.63
2022-07-29T02:20:48.666Z,5.32
2022-07-29T02:23:20.127Z,4.55
2022-07-29T02:25:48.462Z,4.20
2022-07-29T02:28:16.037Z,5.75
2022-07-29T02:30:45.890Z,4.35
2022-07-29T02:33:15.617Z,2.97
2022-07-29T02:35:43.568Z,5.18
2022-07-29T02:38:33.781Z,3.65
2022-07-29T02:41:02.864Z,3.45
2022-07-29T02:43:30.653Z,3.33
2022-07-29T02:45:58.717Z,3.03
2022-07-29T02:48:34.105Z,3.22
2022-07-29T02:51:07.044Z,3.67
2022-07-29T02:53:35.286Z,9.18
2022-07-29T02:56:06.163Z,5.05
2022-07-29T02:58:35.288Z,4.65
2022-07-29T03:01:06.550Z,4.93
2022-07-29T03:03:37.123Z,4.20
2022-07-29T03:06:04.818Z,5.85
2022-07-29T03:10:59.492Z,6.53
2022-07-29T03:15:54.192Z,5.50
2022-07-29T03:20:48.899Z,9.98
2022-07-29T03:23:20.963Z,6.72
2022-07-29T03:25:48.559Z,5.20
2022-07-29T03:30:44.580Z,6.40
2022-07-29T03:33:13.669Z,6.65
2022-07-29T03:35:41.027Z,5.55
2022-07-29T03:38:08.593Z,3.70
2022-07-29T03:40:51.752Z,4.32
2022-07-29T03:43:19.968Z,5.50
2022-07-29T03:45:49.197Z,4.05
2022-07-29T03:48:18.120Z,4.15
2022-07-29T03:50:46.327Z,3.97
2022-07-29T03:53:14.075Z,3.65
2022-07-29T03:55:46.772Z,7.93
2022-07-29T03:58:14.757Z,5.25
2022-07-29T04:00:43.670Z,3.22
2022-07-29T04:03:11.989Z,3.45
2022-07-29T04:05:39.280Z,3.55
2022-07-29T04:08:06.701Z,5.60
2022-07-29T04:10:35.851Z,2.65
2022-07-29T04:13:03.349Z,3.50
2022-07-29T04:15:31.756Z,3.65
2022-07-29T04:17:59.980Z,4.10
2022-07-29T04:20:27.260Z,4.25
2022-07-29T04:22:54.443Z,5.82
2022-07-29T04:25:21.801Z,3.97
2022-07-29T04:28:01.385Z,3.83
2022-07-29T04:30:28.953Z,6.18
2022-07-29T04:32:56.315Z,2.92
2022-07-29T04:35:23.878Z,6.88
2022-07-29T04:37:51.524Z,3.55
2022-07-29T04:42:46.852Z,5.05
2022-07-29T04:45:16.187Z,5.50
2022-07-29T04:47:43.419Z,4.50
2022-07-29T04:50:11.281Z,4.15
2022-07-29T04:52:38.758Z,4.03
2022-07-29T04:55:06.747Z,2.72
2022-07-29T04:57:34.162Z,3.85
2022-07-29T05:00:01.581Z,6.45
2022-07-29T05:02:28.779Z,3.75
2022-07-29T05:04:56.197Z,3.75
2022-07-29T05:07:23.773Z,3.72
2022-07-29T05:09:50.979Z,3.67
2022-07-29T05:12:18.166Z,3.50
2022-07-29T05:14:45.577Z,4.10
2022-07-29T05:17:12.732Z,4.35
2022-07-29T05:19:40.116Z,5.43
2022-07-29T05:22:07.376Z,5.28
2022-07-29T05:24:34.512Z,3.58
2022-07-29T05:27:01.903Z,2.35
2022-07-29T05:29:44.048Z,1.83
2022-07-29T05:32:12.903Z,2.75
2022-07-29T05:34:50.678Z,3.15
2022-07-29T05:37:19.460Z,3.10
2022-07-29T05:42:16.572Z,3.95
2022-07-29T05:44:44.033Z,2.42
2022-07-29T05:47:11.540Z,3.08
2022-07-29T05:49:38.680Z,2.58
2022-07-29T05:52:06.113Z,4.20
2022-07-29T05:54:33.444Z,7.28
2022-07-29T05:57:00.572Z,2.50
2022-07-29T05:59:30.476Z,2.97
2022-07-29T06:01:58.694Z,3.30
2022-07-29T06:04:26.004Z,2.78
2022-07-29T06:06:53.259Z,5.50
2022-07-29T06:09:20.863Z,2.35
2022-07-29T06:11:47.995Z,2.70
2022-07-29T06:14:15.664Z,6.10
2022-07-29T06:16:44.035Z,5.70
2022-07-29T06:19:11.236Z,3.88
2022-07-29T06:21:42.003Z,3.55
2022-07-29T06:24:10.108Z,5.20
2022-07-29T06:26:39.715Z,2.63
2022-07-29T06:29:07.645Z,5.85
2022-07-29T06:31:35.372Z,7.28
2022-07-29T06:34:02.510Z,2.08
2022-07-29T06:36:30.872Z,2.25
2022-07-29T06:38:58.356Z,2.85
2022-07-29T06:41:25.669Z,4.60
2022-07-29T06:43:55.198Z,1.95
2022-07-29T06:46:24.587Z,4.50
2022-07-29T06:48:53.116Z,2.15
2022-07-29T06:51:23.274Z,2.28
2022-07-29T06:53:59.701Z,4.15
2022-07-29T06:56:38.165Z,3.67
2022-07-29T06:59:07.661Z,5.43
2022-07-29T07:01:34.971Z,4.15
2022-07-29T07:04:02.224Z,2.05
2022-07-29T07:06:30.122Z,3.90
2022-07-29T07:08:57.271Z,3.47
2022-07-29T07:11:24.552Z,3.65
2022-07-29T07:13:51.872Z,3.70
2022-07-29T07:16:19.219Z,2.55
2022-07-29T07:18:46.503Z,1.40
2022-07-29T07:21:19.188Z,2.83
2022-07-29T07:23:46.747Z,2.40
2022-07-29T07:26:13.946Z,5.30
2022-07-29T07:28:41.397Z,2.05
2022-07-29T07:31:08.554Z,1.52
2022-07-29T07:33:35.939Z,1.90
2022-07-29T07:36:03.540Z,1.10
2022-07-29T07:40:57.939Z,2.55
2022-07-29T07:43:25.412Z,0.88
2022-07-29T07:48:19.753Z,1.75
2022-07-29T07:50:47.133Z,1.70
2022-07-29T07:58:29.953Z,1.38
2022-07-29T08:03:25.023Z,2.22
2022-07-29T08:05:53.025Z,2.40
2022-07-29T08:08:21.259Z,1.65
2022-07-29T08:10:54.563Z,3.53
2022-07-29T08:13:22.961Z,3.67
2022-07-29T08:15:59.109Z,4.75
2022-07-29T08:18:27.055Z,1.27
2022-07-29T08:20:54.277Z,2.25
2022-07-29T08:23:21.747Z,3.88
2022-07-29T08:28:17.568Z,2.40
2022-07-29T08:30:45.194Z,1.15
2022-07-29T08:33:13.172Z,1.98
2022-07-29T08:35:41.092Z,6.22
2022-07-29T08:38:08.438Z,1.98
2022-07-29T08:40:35.726Z,0.82
2022-07-29T08:43:07.175Z,2.72
2022-07-29T08:45:49.186Z,1.23
2022-07-29T08:48:17.030Z,2.22
2022-07-29T08:50:46.390Z,0.75
2022-07-29T08:53:14.896Z,1.48
2022-07-29T08:55:45.809Z,1.38
2022-07-29T08:58:13.243Z,0.50
2022-07-29T09:00:45.209Z,2.97
2022-07-29T09:03:16.388Z,0.73
2022-07-29T09:05:47.847Z,0.90
2022-07-29T09:08:16.657Z,0.77
2022-07-29T09:10:44.440Z,1.38
2022-07-29T09:13:11.744Z,0.88
2022-07-29T09:15:39.590Z,1.08
2022-07-29T09:18:06.796Z,0.77
2022-07-29T09:20:53.215Z,1.40
2022-07-29T09:23:23.270Z,0.80
2022-07-29T09:25:52.286Z,0.80
2022-07-29T09:30:54.720Z,1.47
2022-07-29T09:33:25.968Z,1.60
2022-07-29T09:36:06.228Z,1.02
2022-07-29T09:38:34.070Z,0.60
2022-07-29T09:41:05.520Z,3.65
2022-07-29T09:43:33.707Z,2.28
2022-07-29T09:46:27.427Z,0.60
2022-07-29T09:49:11.207Z,1.42
2022-07-29T09:51:39.516Z,0.88
2022-07-29T09:54:27.265Z,1.02
2022-07-29T09:56:55.546Z,1.50
2022-07-29T09:59:27.281Z,1.15
2022-07-29T10:01:55.203Z,2.30
2022-07-29T10:04:22.819Z,4.65
2022-07-29T10:09:17.796Z,0.80
2022-07-29T10:12:05.444Z,1.10
2022-07-29T10:14:33.563Z,1.80
2022-07-29T10:17:02.217Z,0.75
2022-07-29T10:19:33.444Z,1.27
2022-07-29T10:22:01.486Z,1.27
2022-07-29T10:24:29.465Z,0.70
2022-07-29T10:26:57.704Z,1.50
2022-07-29T10:29:26.060Z,0.73
2022-07-29T10:31:56.736Z,1.00
2022-07-29T10:34:42.963Z,1.02
2022-07-29T10:37:27.947Z,0.90
2022-07-29T10:40:32.709Z,1.42
2022-07-29T10:43:09.881Z,0.88
2022-07-29T10:45:41.367Z,1.00
2022-07-29T10:48:08.720Z,1.15
2022-07-29T10:53:03.146Z,1.33
2022-07-29T10:55:39.369Z,1.15
2022-07-29T10:58:21.667Z,1.77
2022-07-29T11:00:49.885Z,1.17
2022-07-29T11:03:52.393Z,1.00
2022-07-29T11:06:27.154Z,1.15
2022-07-29T11:09:14.639Z,0.98
2022-07-29T11:11:47.704Z,1.83
2022-07-29T11:14:20.119Z,1.83
2022-07-29T11:17:03.056Z,0.55
2022-07-29T11:19:34.446Z,1.15
2022-07-29T11:22:03.107Z,1.48
2022-07-29T11:27:13.457Z,5.15
2022-07-29T11:29:43.095Z,7.13
2022-07-29T11:32:15.820Z,1.27
2022-07-29T11:34:45.874Z,1.92
2022-07-29T11:37:13.801Z,2.22
2022-07-29T11:39:43.244Z,2.42
2022-07-29T11:42:32.391Z,1.63
2022-07-29T11:45:04.393Z,2.05
2022-07-29T11:47:49.919Z,0.85
2022-07-29T11:50:18.823Z,1.98
2022-07-29T11:52:55.124Z,1.40
2022-07-29T11:55:24.265Z,2.00
2022-07-29T11:58:04.150Z,1.73
2022-07-29T12:00:43.584Z,1.55
2022-07-29T12:03:12.293Z,3.22
2022-07-29T12:05:48.297Z,1.77
2022-07-29T12:08:27.198Z,0.85
2022-07-29T12:10:54.396Z,2.35
2022-07-29T12:13:37.757Z,2.42
2022-07-29T12:16:06.980Z,2.15
2022-07-29T12:18:34.238Z,2.05
2022-07-29T12:21:04.849Z,3.22
2022-07-29T12:23:35.844Z,3.50
2022-07-29T12:26:07.595Z,0.90
2022-07-29T12:28:41.453Z,1.50
2022-07-29T12:31:14.984Z,1.27
2022-07-29T12:34:03.069Z,1.38
2022-07-29T12:36:30.296Z,1.27
2022-07-29T12:38:57.678Z,1.05
2022-07-29T12:43:55.855Z,1.17
2022-07-29T12:46:23.187Z,1.30
2022-07-29T12:51:18.964Z,1.55
2022-07-29T12:56:41.863Z,0.82
2022-07-29T12:59:19.382Z,0.73
2022-07-29T13:01:49.629Z,1.10
2022-07-29T13:04:30.503Z,2.47
2022-07-29T13:07:21.171Z,5.45
2022-07-29T13:10:16.029Z,2.67
2022-07-29T13:13:04.700Z,3.42
2022-07-29T13:15:32.184Z,2.17
2022-07-29T13:20:28.752Z,1.05
2022-07-29T13:22:56.114Z,1.00
2022-07-29T13:27:51.329Z,3.00
2022-07-29T13:30:20.732Z,1.65
2022-07-29T13:32:48.357Z,1.27
2022-07-29T13:35:16.776Z,3.88
2022-07-29T13:37:44.094Z,0.93
2022-07-29T13:40:12.149Z,0.98
2022-07-29T13:42:41.132Z,1.88
2022-07-29T13:45:08.810Z,2.53
2022-07-29T13:47:36.086Z,0.77
2022-07-29T13:50:03.882Z,1.65
2022-07-29T13:52:33.314Z,1.77
2022-07-29T13:55:00.702Z,0.90
2022-07-29T13:59:55.424Z,5.25
2022-07-29T14:02:25.942Z,1.52
2022-07-29T14:04:54.078Z,1.50
2022-07-29T14:07:21.373Z,1.08
2022-07-29T14:09:48.576Z,2.05
2022-07-29T14:12:15.933Z,3.72
2022-07-29T14:17:10.543Z,1.55
2022-07-29T14:19:39.210Z,1.13
2022-07-29T14:22:07.297Z,5.72
2022-07-29T14:24:37.322Z,2.65
2022-07-29T14:27:05.423Z,2.42
2022-07-29T14:29:38.187Z,1.38
2022-07-29T14:32:07.348Z,1.20
2022-07-29T14:34:34.874Z,1.90
2022-07-29T14:39:31.829Z,2.30
2022-07-29T14:42:00.338Z,1.73
2022-07-29T14:44:32.421Z,4.72
2022-07-29T14:47:00.982Z,2.30
2022-07-29T14:49:34.715Z,8.02
2022-07-29T14:52:02.157Z,2.97
2022-07-29T14:56:58.440Z,1.60
2022-07-29T14:59:26.204Z,2.35
2022-07-29T15:04:21.134Z,4.03
2022-07-29T15:06:48.564Z,3.47
2022-07-29T15:11:43.493Z,3.20
2022-07-29T15:14:10.932Z,2.47
2022-07-29T15:19:06.166Z,1.85
2022-07-29T15:21:33.828Z,4.50
2022-07-29T15:24:00.998Z,2.28
2022-07-29T15:26:28.257Z,3.25
2022-07-29T15:28:57.131Z,5.20
2022-07-29T15:31:24.480Z,2.90
2022-07-29T15:36:51.015Z,3.50
2022-07-29T15:39:12.954Z,5.00
2022-07-29T15:41:40.319Z,5.10
2022-07-29T15:44:07.477Z,2.63
2022-07-29T15:46:53.711Z,4.03
2022-07-29T15:49:20.917Z,4.93
2022-07-29T15:51:50.140Z,3.85
2022-07-29T15:54:18.268Z,2.83
2022-07-29T15:56:45.512Z,1.73
2022-07-29T15:59:22.026Z,1.83
2022-07-29T16:01:50.321Z,3.20
2022-07-29T16:04:17.561Z,1.52
2022-07-29T16:06:45.196Z,1.75
2022-07-29T16:09:13.331Z,5.20
2022-07-29T16:11:40.843Z,2.85
2022-07-29T16:14:08.152Z,3.30
2022-07-29T16:16:36.808Z,3.25
2022-07-29T16:19:04.604Z,1.33
2022-07-29T16:21:32.454Z,2.15
2022-07-29T16:24:02.166Z,2.97
2022-07-29T16:26:29.437Z,2.63
2022-07-29T16:28:57.855Z,4.75
2022-07-29T16:31:26.493Z,5.05
2022-07-29T16:33:55.953Z,3.75
2022-07-29T16:36:23.671Z,6.00
2022-07-29T16:38:51.324Z,5.10
2022-07-29T16:41:18.480Z,4.90
2022-07-29T16:43:45.781Z,4.70
2022-07-29T16:48:46.405Z,4.03
2022-07-29T16:53:42.397Z,4.78
2022-07-29T16:56:11.837Z,6.22
2022-07-29T16:58:43.584Z,3.20
2022-07-29T17:01:11.508Z,4.97
2022-07-29T17:04:00.531Z,4.60
2022-07-29T17:06:29.539Z,2.67
2022-07-29T17:08:57.672Z,5.15
2022-07-29T17:11:53.333Z,3.75
2022-07-29T17:14:12.664Z,2.95
2022-07-29T17:16:40.484Z,3.17
2022-07-29T17:19:07.699Z,4.28
2022-07-29T17:21:34.996Z,2.72
2022-07-29T17:24:02.286Z,3.05
2022-07-29T17:28:56.711Z,3.60
2022-07-29T17:31:27.570Z,3.08
2022-07-29T17:33:59.638Z,3.80
2022-07-29T17:36:27.786Z,6.03
2022-07-29T17:38:56.109Z,4.82
2022-07-29T17:41:24.119Z,2.53
2022-07-29T17:43:52.315Z,4.63
2022-07-29T17:46:20.380Z,3.03
2022-07-29T17:48:47.706Z,4.15
2022-07-29T17:51:15.440Z,3.42
2022-07-29T17:53:42.644Z,3.90
2022-07-29T17:56:09.815Z,6.15
2022-07-29T17:58:37.847Z,4.07
2022-07-29T18:01:05.061Z,5.72
2022-07-29T18:03:32.262Z,4.18
2022-07-29T18:06:00.759Z,3.92
2022-07-29T18:08:28.281Z,3.65
2022-07-29T18:13:23.556Z,5.15
2022-07-29T18:15:50.737Z,3.53
2022-07-29T18:18:18.584Z,3.35
2022-07-29T18:20:46.507Z,7.07
2022-07-29T18:23:13.993Z,3.80
2022-07-29T18:28:08.762Z,2.38
2022-07-29T18:30:37.801Z,4.28
2022-07-29T18:33:20.790Z,3.10
2022-07-29T18:35:49.645Z,3.45
2022-07-29T18:38:17.268Z,3.58
2022-07-29T18:40:45.673Z,3.38
2022-07-29T18:43:13.816Z,4.65
2022-07-29T18:45:42.576Z,2.85
2022-07-29T18:48:13.098Z,3.30
2022-07-29T18:50:41.371Z,3.00
2022-07-29T18:53:08.765Z,4.30
2022-07-29T18:55:35.948Z,4.25
2022-07-29T18:58:04.195Z,2.90
2022-07-29T19:00:31.344Z,3.83
2022-07-29T19:02:59.681Z,3.75
2022-07-29T19:05:27.101Z,1.85
2022-07-29T19:07:56.093Z,4.75
2022-07-29T19:10:23.555Z,3.63
2022-07-29T19:12:51.081Z,6.72
2022-07-29T19:17:47.986Z,4.32
2022-07-29T19:20:16.080Z,8.45
2022-07-29T19:22:43.246Z,3.58
2022-07-29T19:25:10.524Z,8.50
2022-07-29T19:27:38.449Z,5.47
2022-07-29T19:30:06.997Z,5.00
2022-07-29T19:32:34.281Z,6.15
2022-07-29T19:35:21.697Z,2.53
2022-07-29T19:37:48.837Z,4.95
2022-07-29T19:40:16.330Z,9.10
2022-07-29T19:42:44.558Z,6.60
2022-07-29T19:45:12.008Z,5.93
2022-07-29T19:47:39.287Z,4.43
2022-07-29T19:50:06.964Z,5.25
2022-07-29T19:52:34.188Z,3.17
2022-07-29T19:55:06.935Z,3.15
2022-07-29T19:57:40.747Z,9.10
2022-07-29T20:00:11.383Z,4.95
2022-07-29T20:02:39.780Z,5.85
2022-07-29T20:05:07.410Z,5.55
2022-07-29T20:07:34.995Z,4.07
2022-07-29T20:10:02.598Z,5.32
2022-07-29T20:14:56.950Z,4.15
2022-07-29T20:17:29.723Z,5.18
2022-07-29T20:19:57.055Z,6.40
2022-07-29T20:22:24.595Z,3.47
2022-07-29T20:27:19.665Z,5.80
2022-07-29T20:29:46.855Z,4.32
2022-07-29T20:32:14.483Z,4.07
2022-07-29T20:37:14.464Z,3.47
2022-07-29T20:39:48.082Z,6.32
2022-07-29T20:42:15.947Z,3.55
2022-07-29T20:44:43.281Z,3.42
2022-07-29T20:47:10.772Z,4.70
2022-07-29T20:49:38.173Z,4.13
2022-07-29T20:52:05.678Z,5.18
2022-07-29T20:54:32.984Z,4.30
2022-07-29T20:57:01.302Z,3.40
2022-07-29T20:59:28.799Z,3.20
2022-07-29T21:01:56.064Z,5.15
2022-07-29T21:04:30.494Z,6.82
2022-07-29T21:06:58.669Z,4.88
2022-07-29T21:09:26.376Z,4.60
2022-07-29T21:11:53.519Z,4.78
2022-07-29T21:14:46.971Z,4.78
2022-07-29T21:17:15.491Z,9.15
2022-07-29T21:19:42.810Z,10.25
2022-07-29T21:22:10.393Z,8.10
2022-07-29T21:27:24.347Z,5.25
2022-07-29T21:29:51.731Z,3.00
2022-07-29T21:32:27.420Z,6.97
2022-07-29T21:34:57.567Z,9.32
2022-07-29T21:37:24.792Z,14.90
2022-07-29T21:39:52.014Z,9.25
2022-07-29T21:42:19.428Z,6.22
2022-07-29T21:44:46.832Z,6.72
2022-07-29T21:47:14.063Z,9.35
2022-07-29T21:49:41.684Z,2.97
2022-07-29T21:54:36.385Z,3.78
2022-07-29T21:57:04.668Z,7.90
2022-07-29T21:59:32.143Z,4.05
2022-07-29T22:02:01.052Z,4.60
2022-07-29T22:04:29.281Z,8.38
2022-07-29T22:06:57.077Z,4.55
2022-07-29T22:09:25.011Z,6.30
2022-07-29T22:11:52.575Z,7.57
2022-07-29T22:14:19.813Z,3.63
2022-07-29T22:16:47.650Z,4.35
2022-07-29T22:19:15.376Z,5.70
2022-07-29T22:24:10.659Z,5.70
2022-07-29T22:26:39.210Z,15.70
2022-07-29T22:29:06.690Z,6.13
2022-07-29T22:31:33.902Z,10.77
2022-07-29T22:34:01.253Z,8.20
2022-07-29T22:36:28.476Z,10.40
2022-07-29T22:38:55.813Z,7.28
2022-07-29T22:41:23.513Z,5.40
2022-07-29T22:46:17.729Z,4.93
2022-07-29T22:48:45.198Z,5.13
2022-07-29T22:51:12.410Z,5.53
2022-07-29T22:53:39.562Z,3.90
2022-07-29T22:56:06.867Z,9.20
2022-07-29T22:58:34.006Z,4.78
2022-07-29T23:01:01.656Z,6.05
2022-07-29T23:05:56.344Z,8.50
2022-07-29T23:08:23.834Z,6.43
2022-07-29T23:10:51.271Z,11.00
2022-07-29T23:13:18.400Z,7.75
2022-07-29T23:15:45.569Z,8.60
2022-07-29T23:18:13.353Z,7.22
2022-07-29T23:20:40.925Z,8.02
2022-07-29T23:23:08.291Z,7.18
2022-07-29T23:25:36.625Z,5.57
2022-07-29T23:28:03.864Z,6.97
2022-07-29T23:30:31.093Z,7.70
2022-07-29T23:32:59.072Z,6.13
2022-07-29T23:35:26.234Z,7.68
2022-07-29T23:37:53.462Z,5.07
2022-07-29T23:40:21.583Z,8.23
2022-07-29T23:42:48.715Z,6.30
2022-07-29T23:45:15.925Z,5.72
2022-07-29T23:47:43.548Z,6.13
2022-07-29T23:52:40.212Z,14.88
2022-07-29T23:55:37.378Z,9.23
2022-07-29T23:57:56.000Z,5.20
